createdAt,value
2017-07-10T00:02:08.546Z,20.50
2017-07-10T00:04:36.090Z,20.40
2017-07-10T00:07:03.647Z,20.50
2017-07-10T00:09:31.173Z,20.40
2017-07-10T00:11:58.750Z,20.40
2017-07-10T00:14:26.295Z,20.40
2017-07-10T00:16:54.581Z,20.40
2017-07-10T00:19:22.144Z,20.30
2017-07-10T00:21:49.670Z,20.30
2017-07-10T00:24:17.245Z,20.10
2017-07-10T00:26:44.781Z,20.10
2017-07-10T00:29:12.367Z,20.00
2017-07-10T00:31:39.901Z,20.00
2017-07-10T00:34:07.437Z,19.80
2017-07-10T00:36:35.009Z,19.80
2017-07-10T00:39:02.543Z,19.80
2017-07-10T00:41:30.107Z,19.70
2017-07-10T00:43:57.645Z,19.80
2017-07-10T00:46:25.217Z,19.80
2017-07-10T00:48:52.762Z,19.70
2017-07-10T00:51:20.358Z,19.70
2017-07-10T00:53:47.912Z,19.70
2017-07-10T00:56:15.445Z,19.60
2017-07-10T00:58:43.044Z,19.50
2017-07-10T01:01:10.647Z,19.30
2017-07-10T01:03:38.147Z,19.40
2017-07-10T01:06:05.724Z,19.50
2017-07-10T01:08:33.260Z,19.40
2017-07-10T01:11:00.837Z,19.30
2017-07-10T01:13:28.421Z,19.30
2017-07-10T01:15:56.018Z,19.00
2017-07-10T01:18:23.637Z,18.90
2017-07-10T01:20:51.182Z,19.10
2017-07-10T01:23:18.771Z,19.10
2017-07-10T01:25:46.313Z,19.10
2017-07-10T01:28:13.844Z,19.10
2017-07-10T01:30:41.434Z,19.10
2017-07-10T01:33:08.969Z,19.10
2017-07-10T01:35:36.580Z,19.10
2017-07-10T01:38:04.146Z,19.10
2017-07-10T01:40:31.746Z,19.10
2017-07-10T01:42:59.370Z,19.00
2017-07-10T01:45:26.951Z,19.00
2017-07-10T01:47:54.498Z,18.80
2017-07-10T01:50:22.087Z,18.60
2017-07-10T01:52:49.649Z,18.60
2017-07-10T01:55:17.233Z,18.70
2017-07-10T01:57:44.797Z,18.70
2017-07-10T02:00:12.380Z,18.70
2017-07-10T02:02:39.949Z,18.50
2017-07-10T02:05:07.493Z,18.60
2017-07-10T02:07:35.117Z,18.60
2017-07-10T02:10:02.683Z,18.70
2017-07-10T02:12:30.242Z,18.70
2017-07-10T02:14:57.831Z,18.70
2017-07-10T02:17:25.410Z,18.80
2017-07-10T02:19:52.986Z,18.70
2017-07-10T02:22:20.584Z,18.60
2017-07-10T02:24:48.218Z,18.50
2017-07-10T02:27:15.761Z,18.50
2017-07-10T02:29:43.335Z,18.50
2017-07-10T02:32:10.884Z,18.60
2017-07-10T02:34:38.480Z,18.70
2017-07-10T02:37:06.020Z,18.60
2017-07-10T02:39:33.589Z,18.50
2017-07-10T02:42:01.133Z,18.50
2017-07-10T02:44:28.697Z,18.60
2017-07-10T02:46:56.235Z,18.50
2017-07-10T02:49:23.805Z,18.60
2017-07-10T02:51:51.351Z,18.60
2017-07-10T02:54:18.935Z,18.60
2017-07-10T02:56:46.518Z,18.60
2017-07-10T02:59:14.073Z,18.60
2017-07-10T03:01:41.617Z,18.60
2017-07-10T03:04:09.198Z,18.70
2017-07-10T03:06:36.742Z,18.80
2017-07-10T03:09:04.333Z,18.80
2017-07-10T03:11:31.881Z,18.70
2017-07-10T03:13:59.437Z,18.70
2017-07-10T03:16:27.077Z,18.70
2017-07-10T03:18:54.663Z,18.80
2017-07-10T03:21:22.260Z,18.80
2017-07-10T03:23:49.800Z,18.70
2017-07-10T03:26:17.350Z,18.60
2017-07-10T03:28:44.912Z,18.60
2017-07-10T03:31:12.540Z,18.50
2017-07-10T03:33:40.163Z,18.50
2017-07-10T03:36:07.715Z,18.40
2017-07-10T03:38:35.316Z,18.40
2017-07-10T03:41:02.865Z,18.40
2017-07-10T03:43:30.408Z,18.60
2017-07-10T03:45:58.028Z,18.60
2017-07-10T03:48:25.569Z,18.60
2017-07-10T03:50:53.104Z,18.60
2017-07-10T03:53:20.677Z,18.60
2017-07-10T03:55:48.221Z,18.50
2017-07-10T03:58:15.820Z,18.60
2017-07-10T04:00:43.369Z,18.50
2017-07-10T04:03:10.916Z,18.50
2017-07-10T04:05:38.492Z,18.40
2017-07-10T04:08:06.082Z,18.40
2017-07-10T04:10:33.652Z,18.50
2017-07-10T04:13:01.200Z,18.40
2017-07-10T04:15:28.780Z,18.40
2017-07-10T04:17:56.322Z,18.40
2017-07-10T04:20:23.900Z,18.40
2017-07-10T04:22:52.714Z,18.40
2017-07-10T04:25:20.273Z,18.40
2017-07-10T04:27:47.867Z,18.40
2017-07-10T04:30:15.414Z,18.40
2017-07-10T04:32:42.995Z,18.50
2017-07-10T04:35:10.530Z,18.50
2017-07-10T04:37:38.068Z,18.50
2017-07-10T04:40:05.645Z,18.50
2017-07-10T04:42:33.193Z,18.60
2017-07-10T04:45:00.770Z,18.60
2017-07-10T04:47:28.322Z,18.60
2017-07-10T04:49:55.929Z,18.60
2017-07-10T04:52:23.481Z,18.60
2017-07-10T04:54:51.049Z,18.70
2017-07-10T04:57:18.660Z,18.80
2017-07-10T04:59:46.259Z,18.90
2017-07-10T05:02:13.818Z,18.90
2017-07-10T05:04:41.442Z,19.00
2017-07-10T05:07:09.097Z,19.00
2017-07-10T05:09:36.663Z,19.20
2017-07-10T05:12:04.247Z,19.10
2017-07-10T05:14:31.790Z,19.00
2017-07-10T05:16:59.373Z,19.00
2017-07-10T05:19:26.953Z,19.10
2017-07-10T05:21:54.530Z,19.20
2017-07-10T05:24:22.079Z,19.20
2017-07-10T05:26:49.674Z,19.20
2017-07-10T05:29:17.221Z,19.20
2017-07-10T05:31:44.770Z,19.30
2017-07-10T05:34:12.359Z,19.30
2017-07-10T05:36:39.927Z,19.40
2017-07-10T05:39:07.478Z,19.50
2017-07-10T05:41:35.076Z,19.40
2017-07-10T05:44:02.639Z,19.40
2017-07-10T05:46:30.233Z,19.40
2017-07-10T05:48:57.773Z,19.40
2017-07-10T05:51:25.326Z,19.50
2017-07-10T05:53:52.906Z,19.50
2017-07-10T05:56:20.478Z,19.50
2017-07-10T05:58:48.067Z,19.60
2017-07-10T06:01:15.625Z,19.60
2017-07-10T06:03:43.171Z,19.60
2017-07-10T06:06:10.748Z,19.70
2017-07-10T06:08:38.293Z,19.60
2017-07-10T06:11:05.830Z,19.70
2017-07-10T06:13:33.421Z,19.70
2017-07-10T06:16:00.994Z,19.80
2017-07-10T06:18:28.574Z,19.80
2017-07-10T06:20:56.116Z,19.90
2017-07-10T06:23:23.703Z,19.90
2017-07-10T06:25:52.079Z,19.90
2017-07-10T06:28:19.677Z,19.90
2017-07-10T06:30:47.224Z,20.00
2017-07-10T06:33:14.767Z,19.90
2017-07-10T06:35:42.343Z,20.00
2017-07-10T06:38:09.882Z,20.10
2017-07-10T06:40:37.483Z,20.10
2017-07-10T06:43:05.026Z,20.10
2017-07-10T06:45:32.609Z,20.00
2017-07-10T06:48:00.141Z,20.10
2017-07-10T06:50:27.707Z,20.10
2017-07-10T06:52:55.301Z,20.10
2017-07-10T06:55:22.842Z,20.30
2017-07-10T06:57:50.395Z,20.40
2017-07-10T07:00:17.981Z,20.50
2017-07-10T07:02:45.530Z,20.50
2017-07-10T07:05:13.109Z,20.80
2017-07-10T07:07:40.650Z,21.00
2017-07-10T07:10:08.188Z,21.10
2017-07-10T07:12:35.787Z,21.20
2017-07-10T07:15:03.331Z,21.30
2017-07-10T07:17:30.868Z,21.50
2017-07-10T07:19:58.431Z,21.60
2017-07-10T07:22:26.021Z,21.70
2017-07-10T07:24:53.590Z,22.00
2017-07-10T07:27:21.134Z,21.80
2017-07-10T07:29:48.713Z,21.60
2017-07-10T07:32:16.253Z,21.70
2017-07-10T07:34:43.833Z,21.90
2017-07-10T07:37:11.373Z,22.10
2017-07-10T07:39:38.968Z,22.30
2017-07-10T07:42:06.531Z,22.10
2017-07-10T07:44:34.102Z,22.10
2017-07-10T07:47:01.677Z,22.20
2017-07-10T07:49:29.219Z,22.30
2017-07-10T07:51:56.797Z,22.30
2017-07-10T07:54:24.339Z,22.10
2017-07-10T07:56:51.907Z,22.00
2017-07-10T07:59:19.519Z,22.20
2017-07-10T08:01:47.063Z,22.30
2017-07-10T08:04:14.591Z,22.30
2017-07-10T08:06:42.171Z,22.30
2017-07-10T08:09:09.723Z,22.40
2017-07-10T08:11:37.302Z,22.40
2017-07-10T08:14:04.861Z,22.40
2017-07-10T08:16:32.466Z,22.40
2017-07-10T08:19:00.247Z,22.40
2017-07-10T08:21:28.019Z,22.30
2017-07-10T08:23:55.601Z,22.50
2017-07-10T08:26:23.146Z,22.50
2017-07-10T08:28:50.707Z,22.70
2017-07-10T08:31:18.283Z,22.80
2017-07-10T08:33:45.858Z,22.80
2017-07-10T08:36:13.464Z,22.70
2017-07-10T08:38:41.009Z,22.70
2017-07-10T08:41:08.550Z,22.60
2017-07-10T08:43:36.174Z,22.80
2017-07-10T08:46:03.956Z,22.80
2017-07-10T08:48:31.487Z,23.00
2017-07-10T08:50:59.227Z,23.10
2017-07-10T08:53:26.803Z,23.00
2017-07-10T08:55:54.342Z,23.10
2017-07-10T08:58:21.937Z,23.30
2017-07-10T09:00:49.474Z,23.20
2017-07-10T09:03:17.017Z,23.40
2017-07-10T09:05:44.607Z,23.50
2017-07-10T09:08:12.149Z,23.80
2017-07-10T09:10:39.694Z,24.00
2017-07-10T09:13:07.262Z,23.80
2017-07-10T09:15:34.932Z,23.90
2017-07-10T09:18:02.538Z,24.10
2017-07-10T09:20:30.088Z,24.10
2017-07-10T09:22:57.669Z,24.10
2017-07-10T09:25:26.078Z,24.20
2017-07-10T09:27:53.667Z,24.30
2017-07-10T09:30:21.206Z,24.10
2017-07-10T09:32:48.743Z,24.10
2017-07-10T09:35:16.310Z,24.20
2017-07-10T09:37:43.862Z,24.20
2017-07-10T09:40:11.445Z,24.20
2017-07-10T09:42:38.982Z,24.10
2017-07-10T09:45:06.513Z,24.30
2017-07-10T09:47:34.082Z,24.50
2017-07-10T09:50:01.698Z,24.70
2017-07-10T09:52:29.221Z,24.70
2017-07-10T09:54:56.752Z,24.50
2017-07-10T09:57:25.202Z,24.50
2017-07-10T09:59:52.756Z,24.60
2017-07-10T10:02:20.292Z,24.50
2017-07-10T10:04:48.085Z,24.50
2017-07-10T10:07:15.620Z,24.50
2017-07-10T10:09:43.164Z,24.60
2017-07-10T10:12:10.757Z,24.60
2017-07-10T10:14:39.027Z,24.60
2017-07-10T10:17:06.563Z,24.80
2017-07-10T10:19:34.202Z,24.80
2017-07-10T10:22:01.750Z,24.90
2017-07-10T10:24:29.276Z,24.90
2017-07-10T10:26:56.872Z,25.20
2017-07-10T10:29:24.406Z,25.10
2017-07-10T10:31:51.939Z,25.10
2017-07-10T10:34:19.739Z,25.00
2017-07-10T10:36:47.265Z,25.20
2017-07-10T10:39:14.837Z,25.20
2017-07-10T10:41:43.105Z,25.30
2017-07-10T10:44:10.637Z,25.30
2017-07-10T10:46:38.177Z,25.30
2017-07-10T10:49:05.901Z,25.40
2017-07-10T10:51:33.444Z,25.60
2017-07-10T10:54:00.982Z,25.60
2017-07-10T10:56:28.622Z,25.80
2017-07-10T10:58:56.166Z,25.80
2017-07-10T11:01:23.726Z,26.10
2017-07-10T11:03:51.565Z,26.10
2017-07-10T11:06:19.101Z,26.20
2017-07-10T11:08:46.651Z,26.20
2017-07-10T11:11:14.229Z,26.00
2017-07-10T11:13:42.055Z,26.00
2017-07-10T11:16:09.598Z,26.10
2017-07-10T11:18:37.195Z,25.90
2017-07-10T11:21:04.729Z,26.20
2017-07-10T11:23:32.289Z,26.40
2017-07-10T11:25:59.868Z,26.50
2017-07-10T11:28:27.409Z,26.50
2017-07-10T11:30:54.950Z,26.70
2017-07-10T11:33:22.533Z,26.60
2017-07-10T11:35:50.065Z,26.60
2017-07-10T11:38:17.595Z,26.60
2017-07-10T11:40:45.180Z,26.80
2017-07-10T11:43:12.741Z,26.90
2017-07-10T11:45:41.068Z,26.90
2017-07-10T11:48:08.650Z,26.90
2017-07-10T11:50:36.229Z,27.00
2017-07-10T11:53:03.794Z,26.90
2017-07-10T11:55:31.334Z,26.90
2017-07-10T11:57:58.903Z,26.90
2017-07-10T12:00:26.442Z,26.80
2017-07-10T12:02:54.002Z,26.80
2017-07-10T12:05:21.571Z,26.80
2017-07-10T12:07:49.118Z,26.80
2017-07-10T12:10:17.583Z,26.70
2017-07-10T12:12:45.113Z,26.60
2017-07-10T12:15:12.730Z,26.60
2017-07-10T12:17:40.495Z,26.60
2017-07-10T12:20:08.026Z,26.70
2017-07-10T12:22:35.608Z,26.60
2017-07-10T12:25:03.141Z,26.60
2017-07-10T12:27:30.677Z,26.60
2017-07-10T12:29:58.242Z,26.60
2017-07-10T12:32:25.779Z,26.60
2017-07-10T12:34:53.366Z,26.70
2017-07-10T12:37:20.898Z,26.60
2017-07-10T12:39:48.448Z,26.60
2017-07-10T12:42:16.030Z,26.50
2017-07-10T12:44:43.572Z,26.60
2017-07-10T12:47:11.131Z,26.60
2017-07-10T12:49:38.712Z,26.40
2017-07-10T12:52:06.251Z,26.30
2017-07-10T12:54:33.781Z,26.20
2017-07-10T12:57:01.350Z,26.20
2017-07-10T12:59:28.897Z,26.30
2017-07-10T13:01:56.543Z,26.20
2017-07-10T13:04:24.088Z,26.20
2017-07-10T13:06:51.627Z,26.20
2017-07-10T13:09:19.207Z,26.20
2017-07-10T13:11:46.741Z,26.10
2017-07-10T13:14:14.440Z,26.00
2017-07-10T13:16:41.974Z,26.00
2017-07-10T13:19:12.142Z,25.90
2017-07-10T13:21:39.917Z,25.90
2017-07-10T13:24:07.456Z,25.80
2017-07-10T13:26:35.002Z,25.50
2017-07-10T13:29:02.700Z,25.40
2017-07-10T13:31:30.528Z,25.30
2017-07-10T13:33:58.145Z,25.00
2017-07-10T13:36:25.728Z,24.20
2017-07-10T13:38:53.274Z,23.60
2017-07-10T13:41:20.858Z,23.40
2017-07-10T13:43:48.418Z,23.10
2017-07-10T13:46:16.522Z,23.00
2017-07-10T13:48:44.089Z,22.80
2017-07-10T13:51:11.659Z,22.90
2017-07-10T13:53:39.246Z,23.10
2017-07-10T13:56:06.793Z,23.10
2017-07-10T13:58:34.337Z,23.20
2017-07-10T14:01:01.980Z,23.20
2017-07-10T14:03:29.546Z,23.30
2017-07-10T14:05:57.077Z,23.20
2017-07-10T14:08:24.661Z,23.30
2017-07-10T14:10:52.214Z,23.40
2017-07-10T14:13:19.775Z,23.30
2017-07-10T14:15:47.365Z,23.40
2017-07-10T14:18:14.902Z,23.40
2017-07-10T14:20:42.446Z,23.50
2017-07-10T14:23:10.022Z,23.60
2017-07-10T14:25:37.614Z,23.60
2017-07-10T14:28:05.868Z,23.50
2017-07-10T14:30:33.402Z,23.60
2017-07-10T14:33:01.006Z,23.60
2017-07-10T14:35:28.542Z,23.80
2017-07-10T14:37:56.079Z,23.70
2017-07-10T14:40:23.691Z,23.80
2017-07-10T14:42:51.227Z,23.80
2017-07-10T14:45:18.768Z,23.90
2017-07-10T14:47:46.345Z,23.80
2017-07-10T14:50:13.953Z,23.70
2017-07-10T14:52:41.526Z,23.80
2017-07-10T14:55:09.064Z,23.90
2017-07-10T14:57:36.631Z,24.00
2017-07-10T15:00:04.167Z,24.10
2017-07-10T15:02:31.730Z,24.00
2017-07-10T15:04:59.278Z,23.90
2017-07-10T15:07:26.814Z,23.90
2017-07-10T15:09:54.387Z,23.80
2017-07-10T15:12:21.921Z,23.80
2017-07-10T15:14:49.509Z,23.80
2017-07-10T15:17:17.047Z,23.90
2017-07-10T15:19:44.602Z,23.80
2017-07-10T15:22:12.156Z,23.80
2017-07-10T15:24:39.729Z,24.00
2017-07-10T15:27:07.310Z,24.00
2017-07-10T15:29:35.725Z,24.10
2017-07-10T15:32:03.328Z,24.10
2017-07-10T15:34:30.861Z,24.10
2017-07-10T15:36:58.473Z,24.00
2017-07-10T15:39:26.118Z,24.10
2017-07-10T15:41:53.660Z,24.20
2017-07-10T15:44:21.225Z,24.30
2017-07-10T15:46:48.754Z,24.30
2017-07-10T15:49:16.330Z,24.20
2017-07-10T15:51:43.911Z,24.30
2017-07-10T15:54:11.458Z,24.20
2017-07-10T15:56:39.027Z,24.20
2017-07-10T15:59:06.568Z,24.40
2017-07-10T16:01:34.157Z,24.30
2017-07-10T16:04:01.706Z,24.30
2017-07-10T16:06:29.242Z,24.30
2017-07-10T16:08:56.797Z,24.30
2017-07-10T16:11:24.342Z,24.40
2017-07-10T16:13:51.926Z,24.50
2017-07-10T16:16:19.469Z,24.50
2017-07-10T16:18:47.499Z,24.50
2017-07-10T16:21:15.152Z,24.30
2017-07-10T16:23:42.690Z,24.20
2017-07-10T16:26:10.260Z,24.00
2017-07-10T16:28:38.079Z,23.90
2017-07-10T16:31:07.252Z,23.80
2017-07-10T16:33:35.136Z,23.80
2017-07-10T16:36:02.804Z,23.70
2017-07-10T16:38:30.301Z,23.70
2017-07-10T16:40:58.608Z,23.60
2017-07-10T16:43:26.472Z,23.60
2017-07-10T16:45:54.078Z,23.60
2017-07-10T16:48:21.662Z,23.70
2017-07-10T16:50:49.285Z,23.60
2017-07-10T16:53:17.082Z,23.60
2017-07-10T16:55:44.686Z,23.70
2017-07-10T16:58:12.263Z,23.70
2017-07-10T17:00:39.791Z,23.60
2017-07-10T17:03:07.389Z,23.40
2017-07-10T17:05:34.927Z,23.40
2017-07-10T17:08:02.455Z,23.40
2017-07-10T17:10:30.013Z,23.20
2017-07-10T17:12:57.546Z,23.20
2017-07-10T17:15:25.122Z,23.20
2017-07-10T17:17:52.665Z,23.20
2017-07-10T17:20:20.239Z,23.10
2017-07-10T17:22:47.786Z,23.00
2017-07-10T17:25:15.392Z,22.90
2017-07-10T17:27:42.928Z,22.90
2017-07-10T17:30:10.467Z,22.80
2017-07-10T17:32:38.033Z,22.90
2017-07-10T17:35:05.601Z,23.00
2017-07-10T17:37:33.186Z,23.00
2017-07-10T17:40:00.723Z,22.80
2017-07-10T17:42:28.257Z,22.80
2017-07-10T17:44:55.835Z,22.70
2017-07-10T17:47:23.375Z,22.50
2017-07-10T17:49:51.188Z,22.40
2017-07-10T17:52:18.734Z,22.40
2017-07-10T17:54:46.306Z,22.30
2017-07-10T17:57:13.842Z,22.30
2017-07-10T17:59:41.407Z,22.30
2017-07-10T18:02:09.689Z,22.30
2017-07-10T18:04:37.241Z,22.30
2017-07-10T18:07:04.866Z,22.20
2017-07-10T18:09:32.405Z,22.10
2017-07-10T18:11:59.963Z,22.00
2017-07-10T18:14:27.494Z,22.00
2017-07-10T18:16:55.072Z,21.90
2017-07-10T18:19:26.353Z,22.00
2017-07-10T18:21:53.943Z,21.80
2017-07-10T18:24:21.481Z,21.80
2017-07-10T18:26:49.035Z,21.70
2017-07-10T18:29:17.482Z,21.70
2017-07-10T18:31:48.310Z,21.70
2017-07-10T18:34:15.907Z,21.60
2017-07-10T18:36:43.510Z,21.50
2017-07-10T18:39:20.134Z,21.60
2017-07-10T18:41:51.032Z,21.60
2017-07-10T18:44:21.769Z,21.60
2017-07-10T18:46:50.100Z,21.70
2017-07-10T18:49:19.202Z,21.60
2017-07-10T18:51:47.016Z,21.50
2017-07-10T18:54:14.557Z,21.50
2017-07-10T18:56:42.131Z,21.50
2017-07-10T18:59:10.872Z,21.60
2017-07-10T19:01:39.735Z,21.60
2017-07-10T19:04:07.385Z,21.40
2017-07-10T19:06:35.323Z,21.30
2017-07-10T19:09:02.942Z,21.20
2017-07-10T19:11:30.495Z,21.20
2017-07-10T19:13:58.644Z,21.20
2017-07-10T19:16:28.106Z,21.10
2017-07-10T19:18:55.708Z,21.20
2017-07-10T19:21:24.310Z,21.10
2017-07-10T19:23:52.134Z,21.00
2017-07-10T19:26:19.703Z,20.90
2017-07-10T19:28:47.364Z,20.80
2017-07-10T19:31:14.912Z,20.70
2017-07-10T19:33:43.813Z,20.90
2017-07-10T19:36:11.417Z,20.90
2017-07-10T19:38:38.958Z,20.90
2017-07-10T19:41:06.528Z,20.80
2017-07-10T19:43:36.958Z,20.90
2017-07-10T19:46:04.542Z,20.90
2017-07-10T19:48:32.087Z,20.80
2017-07-10T19:50:59.776Z,20.80
2017-07-10T19:53:27.326Z,20.80
2017-07-10T19:55:55.703Z,20.80
2017-07-10T19:58:23.276Z,20.80
2017-07-10T20:00:52.039Z,20.80
2017-07-10T20:03:20.721Z,20.80
2017-07-10T20:05:48.297Z,20.80
2017-07-10T20:08:15.881Z,20.70
2017-07-10T20:10:44.110Z,20.60
2017-07-10T20:13:11.698Z,20.50
2017-07-10T20:15:39.284Z,20.60
2017-07-10T20:18:06.857Z,20.60
2017-07-10T20:20:36.618Z,20.60
2017-07-10T20:23:04.975Z,20.60
2017-07-10T20:25:34.403Z,20.60
2017-07-10T20:28:02.121Z,20.50
2017-07-10T20:30:29.722Z,20.50
2017-07-10T20:32:57.272Z,20.40
2017-07-10T20:35:24.911Z,20.40
2017-07-10T20:37:52.442Z,20.40
2017-07-10T20:40:20.025Z,20.40
2017-07-10T20:42:47.605Z,20.30
2017-07-10T20:45:15.150Z,20.20
2017-07-10T20:47:42.716Z,20.20
2017-07-10T20:50:10.271Z,20.20
2017-07-10T20:52:37.853Z,20.10
2017-07-10T20:55:05.445Z,20.00
2017-07-10T20:57:33.744Z,20.00
2017-07-10T21:00:01.310Z,20.00
2017-07-10T21:02:28.849Z,19.90
2017-07-10T21:04:56.428Z,19.80
2017-07-10T21:07:23.978Z,19.80
2017-07-10T21:09:51.543Z,19.70
2017-07-10T21:12:19.115Z,19.70
2017-07-10T21:14:46.662Z,19.70
2017-07-10T21:17:14.225Z,19.70
2017-07-10T21:19:41.791Z,19.70
2017-07-10T21:22:09.328Z,19.60
2017-07-10T21:24:36.888Z,19.50
2017-07-10T21:27:04.449Z,19.50
2017-07-10T21:29:31.993Z,19.40
2017-07-10T21:31:59.575Z,19.40
2017-07-10T21:34:27.163Z,19.30
2017-07-10T21:36:54.698Z,19.40
2017-07-10T21:39:22.262Z,19.40
2017-07-10T21:41:49.788Z,19.40
2017-07-10T21:44:17.371Z,19.50
2017-07-10T21:46:44.906Z,19.60
2017-07-10T21:49:12.474Z,19.50
2017-07-10T21:51:40.014Z,19.30
2017-07-10T21:54:07.584Z,19.20
2017-07-10T21:56:35.119Z,19.20
2017-07-10T21:59:02.693Z,19.20
2017-07-10T22:01:30.270Z,19.10
2017-07-10T22:03:57.800Z,18.80
2017-07-10T22:06:25.362Z,18.60
2017-07-10T22:08:54.436Z,18.50
2017-07-10T22:11:22.013Z,18.40
2017-07-10T22:13:49.581Z,18.50
2017-07-10T22:16:17.749Z,18.50
2017-07-10T22:18:45.319Z,18.40
2017-07-10T22:21:12.854Z,18.50
2017-07-10T22:23:40.410Z,18.40
2017-07-10T22:26:07.945Z,18.50
2017-07-10T22:28:35.527Z,18.60
2017-07-10T22:31:03.059Z,18.60
2017-07-10T22:33:30.621Z,18.60
2017-07-10T22:35:58.179Z,18.80
2017-07-10T22:38:25.719Z,18.80
2017-07-10T22:40:53.518Z,18.80
2017-07-10T22:43:21.058Z,18.70
2017-07-10T22:45:48.625Z,18.70
2017-07-10T22:48:16.207Z,18.60
2017-07-10T22:50:43.760Z,18.70
2017-07-10T22:53:11.307Z,18.50
2017-07-10T22:55:38.879Z,18.60
2017-07-10T22:58:06.460Z,18.60
2017-07-10T23:00:34.034Z,18.60
2017-07-10T23:03:01.572Z,18.60
2017-07-10T23:05:29.132Z,18.60
2017-07-10T23:07:56.672Z,18.60
2017-07-10T23:10:24.254Z,18.70
2017-07-10T23:12:51.794Z,18.60
2017-07-10T23:15:19.326Z,18.60
2017-07-10T23:17:46.892Z,18.60
2017-07-10T23:20:14.469Z,18.60
2017-07-10T23:22:42.037Z,18.70
2017-07-10T23:25:09.614Z,18.60
2017-07-10T23:27:37.218Z,18.60
2017-07-10T23:30:04.774Z,18.50
2017-07-10T23:32:32.334Z,18.50
2017-07-10T23:34:59.940Z,18.50
2017-07-10T23:37:27.510Z,18.50
2017-07-10T23:39:55.057Z,18.40
2017-07-10T23:42:22.620Z,18.40
2017-07-10T23:44:50.191Z,18.40
2017-07-10T23:47:17.723Z,18.30
2017-07-10T23:49:45.299Z,18.20
2017-07-10T23:52:12.859Z,18.20
